createdAt,value
2018-03-04T00:00:21.341Z,-5.34
2018-03-04T00:02:47.167Z,-5.23
2018-03-04T00:05:12.980Z,-5.33
2018-03-04T00:07:39.159Z,-5.33
2018-03-04T00:10:05.958Z,-5.24
2018-03-04T00:12:31.788Z,-5.64
2018-03-04T00:14:57.605Z,-5.39
2018-03-04T00:17:30.548Z,-5.32
2018-03-04T00:19:56.342Z,-5.30
2018-03-04T00:22:34.622Z,-5.30
2018-03-04T00:25:00.469Z,-5.59
2018-03-04T00:27:26.289Z,-5.62
2018-03-04T00:29:52.527Z,-5.64
2018-03-04T00:32:18.316Z,-5.70
2018-03-04T00:34:44.158Z,-5.47
2018-03-04T00:37:10.078Z,-5.35
2018-03-04T00:39:35.884Z,-5.54
2018-03-04T00:42:01.692Z,-5.54
2018-03-04T00:44:28.342Z,-3.72
2018-03-04T00:46:54.220Z,-4.86
2018-03-04T00:49:21.827Z,-5.42
2018-03-04T00:51:47.667Z,-5.66
2018-03-04T00:54:13.472Z,-5.76
2018-03-04T00:56:39.313Z,-5.71
2018-03-04T00:59:05.160Z,-5.92
2018-03-04T01:01:30.949Z,-5.89
2018-03-04T01:03:56.780Z,-5.92
2018-03-04T01:06:23.386Z,-5.94
2018-03-04T01:08:49.204Z,-5.91
2018-03-04T01:11:15.037Z,-5.84
2018-03-04T01:13:40.849Z,-5.80
2018-03-04T01:16:06.665Z,-5.82
2018-03-04T01:18:32.484Z,-5.89
2018-03-04T01:20:58.335Z,-5.94
2018-03-04T01:23:24.202Z,-6.03
2018-03-04T01:25:50.041Z,-6.05
2018-03-04T01:28:15.882Z,-6.00
2018-03-04T01:30:41.715Z,-5.83
2018-03-04T01:33:07.530Z,-5.91
2018-03-04T01:35:33.361Z,-5.84
2018-03-04T01:37:59.185Z,-5.75
2018-03-04T01:40:25.007Z,-5.77
2018-03-04T01:42:50.874Z,-5.68
2018-03-04T01:45:16.667Z,-5.92
2018-03-04T01:47:42.479Z,-5.91
2018-03-04T01:50:08.319Z,-5.89
2018-03-04T01:52:34.792Z,-5.84
2018-03-04T01:55:01.799Z,-5.79
2018-03-04T01:57:28.360Z,-5.91
2018-03-04T01:59:54.176Z,-6.01
2018-03-04T02:02:20.022Z,-5.98
2018-03-04T02:04:45.837Z,-6.09
2018-03-04T02:07:11.698Z,-6.06
2018-03-04T02:09:37.615Z,-5.90
2018-03-04T02:12:04.388Z,-5.85
2018-03-04T02:14:30.191Z,-5.88
2018-03-04T02:16:57.237Z,-5.93
2018-03-04T02:19:23.058Z,-6.06
2018-03-04T02:21:48.859Z,-6.09
2018-03-04T02:24:14.679Z,-6.16
2018-03-04T02:26:40.488Z,-6.13
2018-03-04T02:29:06.286Z,-5.96
2018-03-04T02:31:32.130Z,-6.06
2018-03-04T02:33:57.984Z,-6.03
2018-03-04T02:36:24.724Z,-6.09
2018-03-04T02:38:50.956Z,-6.04
2018-03-04T02:41:16.788Z,-5.76
2018-03-04T02:43:42.636Z,-6.03
2018-03-04T02:46:08.587Z,-6.03
2018-03-04T02:48:34.410Z,-6.18
2018-03-04T02:51:00.268Z,-6.14
2018-03-04T02:53:26.367Z,-6.00
2018-03-04T02:55:52.173Z,-6.08
2018-03-04T02:58:17.972Z,-5.94
2018-03-04T03:00:43.799Z,-6.01
2018-03-04T03:03:09.594Z,-6.02
2018-03-04T03:05:35.393Z,-6.13
2018-03-04T03:08:01.209Z,-6.18
2018-03-04T03:10:27.011Z,-6.09
2018-03-04T03:12:52.862Z,-6.05
2018-03-04T03:15:18.680Z,-5.96
2018-03-04T03:17:44.468Z,-6.18
2018-03-04T03:20:10.277Z,-6.20
2018-03-04T03:22:36.124Z,-6.13
2018-03-04T03:25:01.907Z,-6.01
2018-03-04T03:27:27.702Z,-6.13
2018-03-04T03:29:53.499Z,-6.30
2018-03-04T03:32:19.289Z,-6.09
2018-03-04T03:34:45.081Z,-6.17
2018-03-04T03:37:10.873Z,-6.26
2018-03-04T03:39:37.011Z,-6.09
2018-03-04T03:42:02.802Z,-6.22
2018-03-04T03:44:28.650Z,-6.13
2018-03-04T03:46:54.450Z,-6.19
2018-03-04T03:49:20.268Z,-6.16
2018-03-04T03:51:46.132Z,-6.14
2018-03-04T03:54:11.898Z,-6.23
2018-03-04T03:56:37.689Z,-6.08
2018-03-04T03:59:03.484Z,-6.08
2018-03-04T04:01:29.280Z,-5.97
2018-03-04T04:03:55.097Z,-5.95
2018-03-04T04:06:20.887Z,-6.05
2018-03-04T04:08:46.656Z,-6.08
2018-03-04T04:11:12.487Z,-6.12
2018-03-04T04:13:38.291Z,-5.97
2018-03-04T04:16:04.082Z,-6.15
2018-03-04T04:18:29.878Z,-6.08
2018-03-04T04:20:55.904Z,-5.91
2018-03-04T04:23:21.848Z,-6.03
2018-03-04T04:25:47.719Z,-6.11
2018-03-04T04:28:13.500Z,-5.96
2018-03-04T04:30:39.299Z,-5.80
2018-03-04T04:33:05.086Z,-5.87
2018-03-04T04:35:30.883Z,-5.80
2018-03-04T04:37:56.679Z,-5.92
2018-03-04T04:40:22.485Z,-5.82
2018-03-04T04:42:48.282Z,-5.90
2018-03-04T04:45:14.076Z,-5.79
2018-03-04T04:47:39.874Z,-5.76
2018-03-04T04:50:05.687Z,-5.82
2018-03-04T04:52:31.479Z,-5.87
2018-03-04T04:54:57.280Z,-5.80
2018-03-04T04:57:23.090Z,-5.82
2018-03-04T04:59:48.881Z,-5.82
2018-03-04T05:02:14.714Z,-5.94
2018-03-04T05:04:40.602Z,-5.82
2018-03-04T05:07:06.723Z,-5.87
2018-03-04T05:09:32.495Z,-5.66
2018-03-04T05:11:58.306Z,-5.76
2018-03-04T05:14:24.100Z,-5.82
2018-03-04T05:16:49.900Z,-5.76
2018-03-04T05:19:15.717Z,-5.77
2018-03-04T05:21:41.528Z,-5.81
2018-03-04T05:24:07.320Z,-5.87
2018-03-04T05:26:33.139Z,-5.82
2018-03-04T05:28:58.951Z,-5.92
2018-03-04T05:31:24.732Z,-5.97
2018-03-04T05:33:50.519Z,-5.88
2018-03-04T05:36:16.325Z,-5.76
2018-03-04T05:38:42.107Z,-5.93
2018-03-04T05:41:07.898Z,-5.87
2018-03-04T05:43:33.795Z,-6.01
2018-03-04T05:45:59.590Z,-6.06
2018-03-04T05:48:25.379Z,-6.16
2018-03-04T05:50:51.276Z,-6.06
2018-03-04T05:53:17.094Z,-6.00
2018-03-04T05:55:42.886Z,-6.06
2018-03-04T05:58:08.708Z,-6.13
2018-03-04T06:00:34.485Z,-5.90
2018-03-04T06:03:00.263Z,-6.01
2018-03-04T06:05:26.093Z,-6.18
2018-03-04T06:07:51.886Z,-6.03
2018-03-04T06:10:17.683Z,-5.91
2018-03-04T06:12:43.839Z,-6.02
2018-03-04T06:15:09.292Z,-6.02
2018-03-04T06:17:35.087Z,-6.02
2018-03-04T06:20:01.008Z,-6.02
2018-03-04T06:22:26.819Z,-6.09
2018-03-04T06:24:52.608Z,-6.07
2018-03-04T06:27:18.409Z,-6.23
2018-03-04T06:29:44.216Z,-6.28
2018-03-04T06:32:10.017Z,-6.26
2018-03-04T06:34:35.821Z,-6.32
2018-03-04T06:37:01.627Z,-6.14
2018-03-04T06:39:27.541Z,-6.20
2018-03-04T06:41:53.340Z,-6.26
2018-03-04T06:44:19.126Z,-6.23
2018-03-04T06:46:44.930Z,-6.17
2018-03-04T06:49:10.733Z,-6.05
2018-03-04T06:51:36.735Z,-5.85
2018-03-04T06:54:02.547Z,-5.94
2018-03-04T06:56:28.447Z,-5.97
2018-03-04T06:58:54.243Z,-5.70
2018-03-04T07:01:20.059Z,-5.67
2018-03-04T07:03:45.878Z,-5.87
2018-03-04T07:06:12.208Z,-5.60
2018-03-04T07:08:37.994Z,-5.59
2018-03-04T07:11:03.816Z,-5.76
2018-03-04T07:13:29.611Z,-5.70
2018-03-04T07:15:55.395Z,-5.62
2018-03-04T07:18:21.167Z,-5.57
2018-03-04T07:20:46.946Z,-5.62
2018-03-04T07:23:12.730Z,-5.69
2018-03-04T07:25:38.595Z,-5.69
2018-03-04T07:28:04.388Z,-5.48
2018-03-04T07:30:30.190Z,-5.65
2018-03-04T07:32:55.991Z,-5.66
2018-03-04T07:35:21.786Z,-5.58
2018-03-04T07:37:47.579Z,-5.50
2018-03-04T07:40:13.399Z,-5.52
2018-03-04T07:42:39.194Z,-5.49
2018-03-04T07:45:04.981Z,-5.56
2018-03-04T07:47:30.822Z,-5.50
2018-03-04T07:49:56.615Z,-5.32
2018-03-04T07:52:22.741Z,-5.32
2018-03-04T07:54:48.526Z,-5.30
2018-03-04T07:57:14.322Z,-5.30
2018-03-04T07:59:40.116Z,-5.28
2018-03-04T08:02:06.726Z,-5.19
2018-03-04T08:04:32.535Z,-5.13
2018-03-04T08:06:58.347Z,-5.08
2018-03-04T08:09:24.123Z,-5.03
2018-03-04T08:11:49.910Z,-4.95
2018-03-04T08:14:15.719Z,-4.84
2018-03-04T08:16:41.511Z,-4.77
2018-03-04T08:19:07.306Z,-4.81
2018-03-04T08:21:33.116Z,-4.77
2018-03-04T08:23:58.916Z,-4.53
2018-03-04T08:26:36.928Z,-4.46
2018-03-04T08:29:02.742Z,-4.39
2018-03-04T08:31:28.546Z,-4.38
2018-03-04T08:33:54.363Z,-4.45
2018-03-04T08:36:20.169Z,-4.36
2018-03-04T08:38:53.007Z,-4.30
2018-03-04T08:41:18.845Z,-4.16
2018-03-04T08:43:44.815Z,-4.19
2018-03-04T08:46:10.629Z,-4.09
2018-03-04T08:48:36.466Z,-4.08
2018-03-04T08:51:02.290Z,-3.99
2018-03-04T08:53:28.115Z,-3.87
2018-03-04T08:55:54.450Z,-3.93
2018-03-04T08:58:20.287Z,-3.67
2018-03-04T09:00:46.099Z,-3.89
2018-03-04T09:03:11.903Z,-3.92
2018-03-04T09:05:37.842Z,-3.79
2018-03-04T09:08:03.696Z,-3.74
2018-03-04T09:10:29.927Z,-3.60
2018-03-04T09:12:55.735Z,-3.64
2018-03-04T09:15:21.666Z,-3.49
2018-03-04T09:17:47.463Z,-3.46
2018-03-04T09:20:13.611Z,-3.45
2018-03-04T09:22:39.501Z,-3.42
2018-03-04T09:25:05.303Z,-3.52
2018-03-04T09:27:31.101Z,-3.52
2018-03-04T09:29:56.936Z,-3.03
2018-03-04T09:34:55.597Z,-2.97
2018-03-04T09:37:21.407Z,-3.06
2018-03-04T09:39:47.212Z,-2.88
2018-03-04T09:42:13.171Z,-2.61
2018-03-04T09:44:39.052Z,-2.72
2018-03-04T09:47:06.222Z,-2.92
2018-03-04T09:49:32.027Z,-2.79
2018-03-04T09:51:57.876Z,-2.83
2018-03-04T09:54:23.687Z,-2.87
2018-03-04T09:56:49.811Z,-2.73
2018-03-04T09:59:15.694Z,-2.72
2018-03-04T10:01:42.309Z,-2.75
2018-03-04T10:04:08.151Z,-2.74
2018-03-04T10:06:41.088Z,-2.70
2018-03-04T10:09:07.485Z,-2.50
2018-03-04T10:11:33.404Z,-2.24
2018-03-04T10:13:59.249Z,-2.37
2018-03-04T10:16:25.292Z,-2.36
2018-03-04T10:18:51.133Z,-2.31
2018-03-04T10:21:17.163Z,-2.31
2018-03-04T10:23:43.006Z,-2.22
2018-03-04T10:26:08.844Z,-2.15
2018-03-04T10:28:34.654Z,-2.20
2018-03-04T10:31:02.557Z,-2.07
2018-03-04T10:33:28.400Z,-1.82
2018-03-04T10:35:54.178Z,-1.56
2018-03-04T10:38:20.055Z,-1.42
2018-03-04T10:40:45.873Z,-1.36
2018-03-04T10:43:11.659Z,-1.28
2018-03-04T10:45:38.819Z,-1.03
2018-03-04T10:48:04.616Z,-0.51
2018-03-04T10:50:30.439Z,-0.37
2018-03-04T10:52:56.255Z,-0.20
2018-03-04T10:55:22.209Z,0.12
2018-03-04T10:57:48.371Z,-0.25
2018-03-04T11:00:14.210Z,-0.44
2018-03-04T11:02:40.807Z,-0.13
2018-03-04T11:05:06.641Z,0.36
2018-03-04T11:07:33.555Z,-0.33
2018-03-04T11:09:59.494Z,-0.52
2018-03-04T11:12:25.278Z,0.05
2018-03-04T11:14:51.101Z,0.12
2018-03-04T11:17:16.892Z,0.09
2018-03-04T11:19:42.728Z,0.23
2018-03-04T11:22:08.853Z,0.05
2018-03-04T11:24:34.679Z,0.03
2018-03-04T11:27:00.468Z,-0.12
2018-03-04T11:29:26.325Z,0.17
2018-03-04T11:31:52.163Z,0.35
2018-03-04T11:34:18.092Z,0.47
2018-03-04T11:36:44.203Z,0.44
2018-03-04T11:39:10.350Z,0.80
2018-03-04T11:41:36.188Z,0.66
2018-03-04T11:44:02.008Z,0.35
2018-03-04T11:46:27.865Z,1.09
2018-03-04T11:48:53.776Z,1.17
2018-03-04T11:51:19.604Z,0.65
2018-03-04T11:53:45.649Z,0.65
2018-03-04T11:56:11.436Z,0.65
2018-03-04T11:58:37.460Z,2.12
2018-03-04T12:01:03.292Z,1.13
2018-03-04T12:03:29.079Z,0.75
2018-03-04T12:05:55.057Z,0.45
2018-03-04T12:08:20.859Z,0.24
2018-03-04T12:10:47.065Z,0.10
2018-03-04T12:13:12.956Z,0.10
2018-03-04T12:15:38.903Z,0.19
2018-03-04T12:18:04.695Z,0.18
2018-03-04T12:20:30.669Z,0.35
2018-03-04T12:22:56.475Z,0.50
2018-03-04T12:25:22.317Z,0.45
2018-03-04T12:27:48.110Z,0.53
2018-03-04T12:30:13.901Z,0.48
2018-03-04T12:32:39.733Z,0.47
2018-03-04T12:35:05.545Z,0.58
2018-03-04T12:37:31.350Z,0.77
2018-03-04T12:39:57.144Z,0.86
2018-03-04T12:42:22.954Z,0.78
2018-03-04T12:44:48.740Z,1.04
2018-03-04T12:47:14.524Z,1.15
2018-03-04T12:49:40.334Z,3.67
2018-03-04T12:52:06.127Z,2.37
2018-03-04T12:54:31.919Z,2.20
2018-03-04T12:56:57.720Z,1.89
2018-03-04T12:59:23.499Z,4.47
2018-03-04T13:01:49.278Z,4.25
2018-03-04T13:04:15.094Z,4.44
2018-03-04T13:06:40.888Z,2.90
2018-03-04T13:09:06.668Z,2.47
2018-03-04T13:11:32.480Z,2.52
2018-03-04T13:13:58.273Z,2.22
2018-03-04T13:16:24.186Z,2.43
2018-03-04T13:18:50.000Z,2.73
2018-03-04T13:21:15.816Z,3.26
2018-03-04T13:23:41.813Z,3.89
2018-03-04T13:26:07.647Z,4.07
2018-03-04T13:28:33.434Z,4.53
2018-03-04T13:30:59.251Z,4.27
2018-03-04T13:33:25.045Z,3.53
2018-03-04T13:35:50.834Z,3.55
2018-03-04T13:38:16.648Z,4.27
2018-03-04T13:40:42.437Z,4.15
2018-03-04T13:43:08.214Z,4.56
2018-03-04T13:45:34.016Z,4.57
2018-03-04T13:47:59.824Z,4.82
2018-03-04T13:50:25.601Z,4.51
2018-03-04T13:52:51.389Z,4.57
2018-03-04T13:55:24.415Z,4.82
2018-03-04T13:57:50.192Z,5.02
2018-03-04T14:00:15.988Z,5.59
2018-03-04T14:02:41.784Z,5.64
2018-03-04T14:05:07.588Z,5.25
2018-03-04T14:07:33.404Z,3.91
2018-03-04T14:09:59.188Z,3.56
2018-03-04T14:12:24.987Z,3.58
2018-03-04T14:14:50.795Z,3.41
2018-03-04T14:17:16.587Z,3.17
2018-03-04T14:19:42.378Z,2.90
2018-03-04T14:22:08.200Z,2.91
2018-03-04T14:24:33.995Z,2.74
2018-03-04T14:26:59.778Z,2.68
2018-03-04T14:29:25.717Z,2.76
2018-03-04T14:31:51.491Z,2.74
2018-03-04T14:34:17.267Z,2.98
2018-03-04T14:36:43.059Z,2.96
2018-03-04T14:39:08.852Z,2.83
2018-03-04T14:41:34.661Z,2.76
2018-03-04T14:44:00.462Z,5.59
2018-03-04T14:46:26.252Z,6.61
2018-03-04T14:48:52.057Z,5.12
2018-03-04T14:51:17.837Z,3.68
2018-03-04T14:53:43.612Z,3.30
2018-03-04T14:56:09.414Z,2.76
2018-03-04T14:58:35.207Z,2.53
2018-03-04T15:01:01.045Z,2.67
2018-03-04T15:03:26.822Z,2.42
2018-03-04T15:05:52.611Z,2.28
2018-03-04T15:08:18.552Z,4.98
2018-03-04T15:10:44.344Z,3.30
2018-03-04T15:13:11.987Z,2.66
2018-03-04T15:15:38.631Z,2.43
2018-03-04T15:18:04.463Z,2.40
2018-03-04T15:20:30.613Z,2.44
2018-03-04T15:22:56.480Z,2.46
2018-03-04T15:25:22.260Z,2.37
2018-03-04T15:27:48.376Z,2.43
2018-03-04T15:30:14.241Z,2.36
2018-03-04T15:32:40.388Z,2.49
2018-03-04T15:35:06.515Z,2.52
2018-03-04T15:37:32.443Z,2.43
2018-03-04T15:39:58.311Z,2.36
2018-03-04T15:42:24.719Z,2.44
2018-03-04T15:44:50.524Z,2.40
2018-03-04T15:47:16.839Z,2.28
2018-03-04T15:49:42.683Z,2.18
2018-03-04T15:52:09.008Z,2.20
2018-03-04T15:54:34.870Z,2.28
2018-03-04T15:57:01.257Z,2.34
2018-03-04T15:59:27.093Z,2.24
2018-03-04T16:01:53.102Z,2.28
2018-03-04T16:04:18.962Z,2.39
2018-03-04T16:06:45.203Z,2.43
2018-03-04T16:09:11.113Z,2.41
2018-03-04T16:11:36.920Z,2.42
2018-03-04T16:14:02.844Z,2.37
2018-03-04T16:16:28.645Z,2.41
2018-03-04T16:18:54.768Z,2.45
2018-03-04T16:21:20.546Z,2.38
2018-03-04T16:23:46.432Z,2.44
2018-03-04T16:26:12.235Z,2.45
2018-03-04T16:28:38.023Z,2.47
2018-03-04T16:31:03.879Z,2.50
2018-03-04T16:33:29.666Z,2.44
2018-03-04T16:35:55.696Z,2.40
2018-03-04T16:38:21.809Z,2.30
2018-03-04T16:40:47.739Z,2.26
2018-03-04T16:43:13.536Z,2.31
2018-03-04T16:45:39.589Z,2.25
2018-03-04T16:48:05.436Z,2.28
2018-03-04T16:50:31.247Z,2.33
2018-03-04T16:52:57.029Z,2.31
2018-03-04T16:55:22.817Z,2.33
2018-03-04T16:57:48.617Z,2.42
2018-03-04T17:00:14.448Z,2.54
2018-03-04T17:02:40.211Z,2.80
2018-03-04T17:05:06.026Z,3.07
2018-03-04T17:07:33.867Z,2.81
2018-03-04T17:09:59.743Z,3.16
2018-03-04T17:12:26.033Z,2.99
2018-03-04T17:14:51.822Z,2.93
2018-03-04T17:17:18.242Z,2.90
2018-03-04T17:19:44.083Z,3.02
2018-03-04T17:22:10.613Z,3.05
2018-03-04T17:24:36.449Z,3.00
2018-03-04T17:27:02.583Z,2.87
2018-03-04T17:29:28.519Z,2.85
2018-03-04T17:31:54.377Z,3.16
2018-03-04T17:34:20.211Z,2.94
2018-03-04T17:36:46.366Z,2.93
2018-03-04T17:39:12.451Z,3.21
2018-03-04T17:41:38.248Z,3.28
2018-03-04T17:44:04.272Z,3.02
2018-03-04T17:46:30.058Z,3.14
2018-03-04T17:48:55.850Z,2.94
2018-03-04T17:51:22.403Z,3.10
2018-03-04T17:53:48.192Z,2.98
2018-03-04T17:56:14.619Z,2.69
2018-03-04T17:58:40.403Z,2.44
2018-03-04T18:01:06.872Z,2.47
2018-03-04T18:03:32.711Z,2.30
2018-03-04T18:05:58.900Z,2.33
2018-03-04T18:08:24.705Z,2.29
2018-03-04T18:10:51.457Z,2.26
2018-03-04T18:13:17.239Z,2.28
2018-03-04T18:15:43.727Z,4.47
2018-03-04T18:18:09.532Z,3.53
2018-03-04T18:20:35.502Z,2.87
2018-03-04T18:23:01.310Z,2.58
2018-03-04T18:25:27.627Z,2.43
2018-03-04T18:27:53.409Z,2.33
2018-03-04T18:30:19.244Z,2.23
2018-03-04T18:32:45.063Z,2.18
2018-03-04T18:35:10.955Z,2.07
2018-03-04T18:37:36.755Z,3.67
2018-03-04T18:40:02.591Z,2.56
2018-03-04T18:42:28.395Z,2.23
2018-03-04T18:44:54.180Z,2.05
2018-03-04T18:47:19.980Z,1.95
2018-03-04T18:49:45.762Z,1.96
2018-03-04T18:52:11.550Z,1.90
2018-03-04T18:54:37.362Z,1.85
2018-03-04T18:57:03.175Z,1.79
2018-03-04T18:59:28.957Z,1.78
2018-03-04T19:01:55.203Z,1.77
2018-03-04T19:04:20.997Z,1.77
2018-03-04T19:06:46.818Z,2.52
2018-03-04T19:09:12.649Z,2.68
2018-03-04T19:11:38.448Z,3.08
2018-03-04T19:14:04.240Z,2.68
2018-03-04T19:16:30.052Z,2.72
2018-03-04T19:18:55.851Z,2.77
2018-03-04T19:21:21.637Z,3.25
2018-03-04T19:23:47.451Z,3.36
2018-03-04T19:26:13.249Z,3.23
2018-03-04T19:28:39.053Z,3.56
2018-03-04T19:31:04.961Z,3.49
2018-03-04T19:33:30.749Z,3.52
2018-03-04T19:35:56.632Z,3.37
2018-03-04T19:38:22.511Z,3.56
2018-03-04T19:40:48.327Z,3.28
2018-03-04T19:43:14.099Z,3.70
2018-03-04T19:45:39.914Z,3.54
2018-03-04T19:48:05.725Z,3.32
2018-03-04T19:50:31.515Z,2.86
2018-03-04T19:52:57.409Z,2.22
2018-03-04T19:55:23.204Z,1.97
2018-03-04T19:57:49.020Z,1.70
2018-03-04T20:00:14.817Z,1.55
2018-03-04T20:02:40.608Z,1.52
2018-03-04T20:05:06.406Z,1.45
2018-03-04T20:07:32.235Z,1.45
2018-03-04T20:09:58.027Z,1.40
2018-03-04T20:12:23.827Z,1.35
2018-03-04T20:14:49.890Z,1.35
2018-03-04T20:17:15.740Z,1.40
2018-03-04T20:19:41.559Z,1.31
2018-03-04T20:22:07.388Z,1.33
2018-03-04T20:24:33.224Z,1.37
2018-03-04T20:26:59.486Z,1.36
2018-03-04T20:29:25.480Z,1.26
2018-03-04T20:31:51.385Z,1.20
2018-03-04T20:34:17.277Z,1.29
2018-03-04T20:36:43.263Z,1.23
2018-03-04T20:39:09.632Z,1.22
2018-03-04T20:41:35.446Z,1.23
2018-03-04T20:44:01.271Z,1.21
2018-03-04T20:46:27.112Z,1.16
2018-03-04T20:48:52.966Z,2.57
2018-03-04T20:51:18.776Z,1.90
2018-03-04T20:53:45.178Z,1.52
2018-03-04T20:56:11.022Z,1.41
2018-03-04T20:58:36.874Z,1.35
2018-03-04T21:01:02.806Z,1.32
2018-03-04T21:03:30.710Z,1.31
2018-03-04T21:05:56.495Z,1.26
2018-03-04T21:08:22.305Z,1.17
2018-03-04T21:10:48.161Z,1.26
2018-03-04T21:13:13.967Z,1.20
2018-03-04T21:15:39.763Z,1.20
2018-03-04T21:18:06.533Z,1.23
2018-03-04T21:20:33.361Z,1.22
2018-03-04T21:22:59.208Z,1.20
2018-03-04T21:25:25.136Z,1.24
2018-03-04T21:27:51.131Z,1.20
2018-03-04T21:30:17.463Z,1.26
2018-03-04T21:32:44.325Z,1.16
2018-03-04T21:35:11.200Z,1.18
2018-03-04T21:37:38.042Z,1.19
2018-03-04T21:40:04.156Z,1.22
2018-03-04T21:42:30.786Z,1.23
2018-03-04T21:44:56.646Z,2.08
2018-03-04T21:47:22.847Z,1.97
2018-03-04T21:49:48.715Z,1.58
2018-03-04T21:52:14.809Z,1.28
2018-03-04T21:54:40.646Z,1.31
2018-03-04T21:57:06.460Z,1.23
2018-03-04T21:59:32.444Z,1.23
2018-03-04T22:01:58.248Z,1.17
2018-03-04T22:04:24.046Z,1.17
2018-03-04T22:06:49.964Z,1.23
2018-03-04T22:09:15.750Z,1.14
2018-03-04T22:11:41.552Z,1.27
2018-03-04T22:14:07.344Z,1.27
2018-03-04T22:16:33.139Z,1.22
2018-03-04T22:18:58.944Z,1.25
2018-03-04T22:21:24.723Z,1.27
2018-03-04T22:23:50.499Z,1.29
2018-03-04T22:26:16.306Z,1.23
2018-03-04T22:28:42.078Z,1.22
2018-03-04T22:31:07.873Z,1.27
2018-03-04T22:33:34.009Z,1.30
2018-03-04T22:35:59.817Z,1.32
2018-03-04T22:38:25.955Z,1.27
2018-03-04T22:40:51.763Z,1.26
2018-03-04T22:43:17.556Z,1.26
2018-03-04T22:45:43.349Z,1.19
2018-03-04T22:48:09.407Z,1.19
2018-03-04T22:50:35.199Z,1.18
2018-03-04T22:53:00.996Z,1.27
2018-03-04T22:55:26.824Z,1.21
2018-03-04T22:57:52.620Z,1.93
2018-03-04T23:00:18.431Z,1.58
2018-03-04T23:02:44.242Z,1.82
2018-03-04T23:05:10.038Z,2.02
2018-03-04T23:07:35.814Z,1.87
2018-03-04T23:10:02.001Z,1.68
2018-03-04T23:12:27.817Z,2.00
2018-03-04T23:14:53.645Z,2.34
2018-03-04T23:17:19.439Z,1.97
2018-03-04T23:19:45.245Z,2.14
2018-03-04T23:22:11.030Z,2.32
2018-03-04T23:24:36.864Z,1.76
2018-03-04T23:27:02.666Z,1.76
2018-03-04T23:29:28.469Z,2.10
2018-03-04T23:31:54.274Z,2.20
2018-03-04T23:34:20.134Z,2.30
2018-03-04T23:36:45.931Z,1.89
2018-03-04T23:39:11.750Z,1.57
2018-03-04T23:41:37.543Z,1.46
2018-03-04T23:44:03.338Z,1.39
2018-03-04T23:46:29.151Z,1.33
2018-03-04T23:48:54.956Z,1.30
2018-03-04T23:51:20.761Z,1.29
2018-03-04T23:53:46.574Z,1.31
2018-03-04T23:56:12.367Z,1.33
2018-03-04T23:58:38.168Z,1.27
